Time;durP1;ratioP1;P1;durP2;ratioP2;P2;SDS_P1;SDS_P2;PMS_P1;PMS_P2;Temp;Humidity;BMP_temperature;BMP_pressure;BME280_temperature;BME280_humidity;BME280_pressure;Samples;Min_cycle;Max_cycle;Signal;HPM_P1;HPM_P2
2024/04/02 00:01:29;;;;;;;0.43;0.43;;;6.90;99.90;;;;;;5041710;28;20073;-33
2024/04/02 00:03:54;;;;;;;0.50;0.50;;;6.90;99.90;;;;;;5041915;28;20052;-35
2024/04/02 00:06:20;;;;;;;0.82;0.82;;;6.80;99.90;;;;;;5042969;28;20041;-33
2024/04/02 00:08:46;;;;;;;0.70;0.70;;;6.80;99.90;;;;;;5041979;28;20525;-38
2024/04/02 00:11:11;;;;;;;0.40;0.40;;;6.70;99.90;;;;;;5042980;28;20119;-41
2024/04/02 00:13:37;;;;;;;0.50;0.50;;;6.70;99.90;;;;;;5043648;28;20108;-43
2024/04/02 00:16:03;;;;;;;0.60;0.60;;;6.80;99.90;;;;;;5044824;28;20036;-39
2024/04/02 00:18:29;;;;;;;0.60;0.60;;;6.70;99.90;;;;;;5042013;28;20025;-40
2024/04/02 00:20:59;;;;;;;0.60;0.60;;;6.70;99.90;;;;;;5043721;28;20029;-42
2024/04/02 00:23:25;;;;;;;0.60;0.60;;;6.80;99.90;;;;;;5053537;28;20106;-42
2024/04/02 00:26:04;;;;;;;0.60;0.60;;;6.70;99.90;;;;;;5052669;28;20482;-42
2024/04/02 00:28:30;;;;;;;0.60;0.60;;;6.70;99.90;;;;;;5039109;28;20025;-41
2024/04/02 00:31:02;;;;;;;0.77;0.77;;;6.70;99.90;;;;;;5040055;28;20334;-42
2024/04/02 00:33:29;;;;;;;0.70;0.70;;;6.70;99.90;;;;;;5040258;28;20390;-41
2024/04/02 00:36:06;;;;;;;0.60;0.60;;;6.70;99.90;;;;;;5045124;28;20040;-40
2024/04/02 00:38:33;;;;;;;0.63;0.63;;;6.60;99.90;;;;;;5045773;28;20796;-41
2024/04/02 00:40:59;;;;;;;0.70;0.70;;;6.60;99.90;;;;;;5046304;28;20048;-38
2024/04/02 00:43:25;;;;;;;0.70;0.70;;;6.60;99.90;;;;;;5041732;28;20475;-40
2024/04/02 00:45:52;;;;;;;0.70;0.70;;;6.60;99.90;;;;;;5040701;28;20032;-40
2024/04/02 00:48:18;;;;;;;0.60;0.60;;;6.50;99.90;;;;;;5040808;28;20125;-42
2024/04/02 00:50:45;;;;;;;0.80;0.80;;;6.50;99.90;;;;;;5041125;28;20542;-40
2024/04/02 00:53:12;;;;;;;0.60;0.60;;;6.50;99.90;;;;;;5039742;28;20024;-41
2024/04/02 00:55:38;;;;;;;0.60;0.60;;;6.50;99.90;;;;;;5041618;28;20367;-42
2024/04/02 00:58:05;;;;;;;0.45;0.45;;;6.50;99.90;;;;;;5042088;28;20025;-38
2024/04/02 01:00:32;;;;;;;0.65;0.65;;;6.40;99.90;;;;;;5038878;28;20044;-41
2024/04/02 01:02:57;;;;;;;1.73;0.70;;;6.40;99.90;;;;;;5019311;28;20029;-39
2024/04/02 01:05:23;;;;;;;1.95;0.70;;;6.40;99.90;;;;;;5019730;28;20029;-43
2024/04/02 01:07:49;;;;;;;0.60;0.60;;;6.40;99.90;;;;;;5020148;28;20136;-42
2024/04/02 01:10:15;;;;;;;0.60;0.60;;;6.40;99.90;;;;;;5018991;28;20527;-41
2024/04/02 01:12:40;;;;;;;0.73;0.73;;;6.30;99.90;;;;;;5020936;28;20115;-41
2024/04/02 01:15:06;;;;;;;0.68;0.68;;;6.40;99.90;;;;;;5019366;28;20068;-41
2024/04/02 01:17:32;;;;;;;0.50;0.50;;;6.40;99.90;;;;;;5020835;28;22197;-41
2024/04/02 01:19:57;;;;;;;0.82;0.82;;;6.40;99.90;;;;;;5021089;28;20034;-41
2024/04/02 01:22:23;;;;;;;0.95;0.70;;;6.30;99.90;;;;;;5019232;28;20033;-40
2024/04/02 01:24:59;;;;;;;0.60;0.60;;;6.40;99.90;;;;;;5021913;28;20029;-42
2024/04/02 01:27:26;;;;;;;0.68;0.68;;;6.40;99.90;;;;;;5020619;28;20855;-42
2024/04/02 01:29:52;;;;;;;0.57;0.57;;;6.40;99.90;;;;;;5023894;28;20057;-42
2024/04/02 01:32:17;;;;;;;0.70;0.70;;;6.30;99.90;;;;;;5037329;28;20139;-39
2024/04/02 01:34:43;;;;;;;0.68;0.63;;;6.30;99.90;;;;;;5044743;28;20390;-40
2024/04/02 01:37:09;;;;;;;0.70;0.70;;;6.30;99.90;;;;;;5045334;28;20060;-39
2024/04/02 01:39:34;;;;;;;0.60;0.60;;;6.20;99.90;;;;;;5043479;28;20032;-41
2024/04/02 01:42:00;;;;;;;0.65;0.65;;;6.30;99.90;;;;;;5044376;28;22092;-40
2024/04/02 01:44:25;;;;;;;0.70;0.70;;;6.20;99.90;;;;;;5044011;28;20055;-41
2024/04/02 01:46:51;;;;;;;0.80;0.80;;;6.20;99.90;;;;;;5042785;28;20120;-39
2024/04/02 01:49:16;;;;;;;0.57;0.57;;;6.10;99.90;;;;;;5043927;28;20380;-40
2024/04/02 01:51:44;;;;;;;0.55;0.55;;;5.90;99.90;;;;;;5044977;28;20041;-41
2024/04/02 01:54:09;;;;;;;0.60;0.60;;;5.90;99.90;;;;;;5040568;28;20091;-41
2024/04/02 01:56:35;;;;;;;0.75;0.70;;;5.90;99.90;;;;;;5041597;28;20045;-41
2024/04/02 01:59:00;;;;;;;0.82;0.70;;;5.90;99.90;;;;;;5042373;28;20039;-40
2024/04/02 02:01:26;;;;;;;0.80;0.80;;;6.00;99.90;;;;;;5044331;28;20033;-43
2024/04/02 02:03:51;;;;;;;0.70;0.70;;;5.90;99.90;;;;;;5043914;28;20756;-38
2024/04/02 02:06:17;;;;;;;0.65;0.65;;;6.00;99.90;;;;;;5045869;28;20040;-40
2024/04/02 02:08:43;;;;;;;0.70;0.70;;;6.00;99.90;;;;;;5044398;28;20059;-42
2024/04/02 02:11:08;;;;;;;0.88;0.88;;;6.00;99.90;;;;;;5043205;28;20028;-42
2024/04/02 02:13:35;;;;;;;0.70;0.70;;;5.90;99.90;;;;;;5046396;28;20060;-43
2024/04/02 02:16:02;;;;;;;0.60;0.60;;;5.90;99.90;;;;;;5045454;28;20033;-38
2024/04/02 02:18:31;;;;;;;0.52;0.52;;;5.80;99.90;;;;;;5043457;28;20032;-41
2024/04/02 02:20:58;;;;;;;0.40;0.40;;;5.60;99.90;;;;;;5045907;28;20041;-35
2024/04/02 02:23:24;;;;;;;0.50;0.50;;;5.50;99.90;;;;;;5042791;28;20025;-42
2024/04/02 02:25:50;;;;;;;0.60;0.60;;;5.50;99.90;;;;;;5044019;28;20349;-40
2024/04/02 02:28:16;;;;;;;0.70;0.70;;;5.60;99.90;;;;;;5043189;28;20029;-37
2024/04/02 02:30:42;;;;;;;0.70;0.70;;;5.70;99.90;;;;;;5044606;28;20028;-33
2024/04/02 02:33:08;;;;;;;0.60;0.60;;;5.80;99.90;;;;;;5042583;28;20025;-37
2024/04/02 02:35:33;;;;;;;0.70;0.70;;;5.80;99.90;;;;;;5043659;28;20056;-34
2024/04/02 02:37:59;;;;;;;0.55;0.55;;;5.90;99.90;;;;;;5043376;28;20055;-38
2024/04/02 02:40:25;;;;;;;0.75;0.70;;;5.90;99.90;;;;;;5042116;28;20033;-34
2024/04/02 02:42:50;;;;;;;0.80;0.80;;;6.00;99.90;;;;;;5043845;28;20076;-32
2024/04/02 02:45:16;;;;;;;2.80;0.75;;;6.10;99.90;;;;;;5044184;28;20045;-39
2024/04/02 02:47:42;;;;;;;0.98;0.98;;;6.10;99.90;;;;;;5042162;28;20466;-37
2024/04/02 02:50:07;;;;;;;1.35;0.75;;;6.10;99.90;;;;;;5043367;28;20115;-34
2024/04/02 02:52:33;;;;;;;1.50;0.90;;;6.10;99.90;;;;;;5042943;28;20086;-36
2024/04/02 02:54:58;;;;;;;0.70;0.70;;;6.10;99.90;;;;;;5042279;28;20032;-37
2024/04/02 02:57:24;;;;;;;0.68;0.68;;;6.20;99.90;;;;;;5043124;28;20033;-37
2024/04/02 02:59:50;;;;;;;0.60;0.60;;;6.20;99.90;;;;;;5041651;28;20035;-33
2024/04/02 03:02:15;;;;;;;0.75;0.75;;;6.20;99.90;;;;;;5042510;28;20045;-33
2024/04/02 03:04:41;;;;;;;0.80;0.80;;;6.30;99.90;;;;;;5044227;28;20103;-37
2024/04/02 03:07:07;;;;;;;1.48;0.80;;;6.30;99.90;;;;;;5043802;28;20043;-35
2024/04/02 03:09:36;;;;;;;1.33;0.80;;;6.30;99.90;;;;;;5042229;28;20312;-36
2024/04/02 03:12:02;;;;;;;0.70;0.70;;;6.30;99.90;;;;;;5042480;28;20411;-40
2024/04/02 03:14:29;;;;;;;0.50;0.50;;;6.40;99.90;;;;;;5042660;28;20538;-35
2024/04/02 03:16:55;;;;;;;0.50;0.50;;;6.40;99.90;;;;;;5043551;28;20478;-35
2024/04/02 03:19:20;;;;;;;0.80;0.80;;;6.50;99.90;;;;;;5038536;28;20043;-38
2024/04/02 03:21:46;;;;;;;0.70;0.70;;;6.50;99.90;;;;;;5041628;28;20043;-37
2024/04/02 03:24:12;;;;;;;0.57;0.57;;;6.50;99.90;;;;;;5041769;28;20670;-33
2024/04/02 03:26:38;;;;;;;0.88;0.88;;;6.60;99.90;;;;;;5043512;28;20033;-38
2024/04/02 03:29:03;;;;;;;0.47;0.47;;;6.60;99.90;;;;;;5043648;28;20107;-36
2024/04/02 03:31:29;;;;;;;0.75;0.75;;;6.70;99.90;;;;;;5033337;28;20029;-36
2024/04/02 03:33:57;;;;;;;0.70;0.70;;;6.70;99.90;;;;;;5022660;28;20427;-36
2024/04/02 03:36:23;;;;;;;0.75;0.70;;;6.80;99.90;;;;;;5022341;28;22267;-35
2024/04/02 03:38:49;;;;;;;0.50;0.50;;;6.80;99.90;;;;;;5021847;28;20055;-39
2024/04/02 03:41:16;;;;;;;1.17;0.52;;;6.90;99.90;;;;;;5021686;28;20049;-42
2024/04/02 03:43:42;;;;;;;0.60;0.60;;;6.90;99.90;;;;;;5023006;28;20037;-40
2024/04/02 03:46:09;;;;;;;0.40;0.40;;;6.90;99.90;;;;;;5020911;28;20667;-38
2024/04/02 03:48:35;;;;;;;0.68;0.68;;;7.00;99.90;;;;;;5020790;28;20061;-34
2024/04/02 03:51:01;;;;;;;0.70;0.70;;;7.00;99.90;;;;;;5020410;28;20507;-40
2024/04/02 03:53:27;;;;;;;0.68;0.68;;;7.00;99.90;;;;;;5021164;28;20517;-38
2024/04/02 03:56:00;;;;;;;0.63;0.63;;;7.00;99.90;;;;;;5023089;28;20029;-36
2024/04/02 03:58:26;;;;;;;1.00;1.00;;;7.00;99.90;;;;;;5022453;28;20029;-33
2024/04/02 04:00:54;;;;;;;0.70;0.70;;;7.00;99.90;;;;;;5026563;28;20045;-33
2024/04/02 04:03:20;;;;;;;0.77;0.77;;;7.00;99.90;;;;;;5042890;28;20037;-35
2024/04/02 04:05:46;;;;;;;0.65;0.65;;;7.10;99.90;;;;;;5043323;28;20478;-34
2024/04/02 04:08:12;;;;;;;2.90;0.77;;;7.10;99.90;;;;;;5041835;28;20060;-38
2024/04/02 04:10:37;;;;;;;0.70;0.70;;;7.10;99.90;;;;;;5041386;28;20029;-38
2024/04/02 04:13:03;;;;;;;0.70;0.70;;;7.10;99.90;;;;;;5041802;28;20108;-36
2024/04/02 04:15:29;;;;;;;0.73;0.73;;;7.10;99.90;;;;;;5038405;28;20051;-32
2024/04/02 04:17:55;;;;;;;0.80;0.80;;;7.10;99.90;;;;;;5041575;28;20021;-33
2024/04/02 04:20:21;;;;;;;0.70;0.70;;;7.10;99.90;;;;;;5039907;28;20074;-35
2024/04/02 04:22:50;;;;;;;0.75;0.75;;;7.10;99.90;;;;;;5042848;28;20078;-37
2024/04/02 04:25:16;;;;;;;0.80;0.80;;;7.20;99.90;;;;;;5042197;28;20045;-34
2024/04/02 04:27:44;;;;;;;0.63;0.63;;;7.20;99.90;;;;;;5041261;28;20097;-36
2024/04/02 04:30:11;;;;;;;;;;;7.20;99.90;;;;;;5039269;28;20036;-38
2024/04/02 04:32:36;;;;;;;0.90;0.90;;;7.20;99.90;;;;;;5023394;28;19929;-35
2024/04/02 04:35:02;;;;;;;0.80;0.80;;;7.20;99.90;;;;;;5022030;28;20033;-37
2024/04/02 04:37:30;;;;;;;1.58;1.02;;;7.20;99.90;;;;;;5019732;28;20483;-33
2024/04/02 04:39:56;;;;;;;0.60;0.60;;;7.20;99.90;;;;;;5019931;28;20039;-36
2024/04/02 04:42:23;;;;;;;0.63;0.63;;;7.30;99.90;;;;;;5023191;28;20033;-34
2024/04/02 04:44:49;;;;;;;0.60;0.60;;;7.20;99.90;;;;;;5018937;28;20030;-36
2024/04/02 04:47:15;;;;;;;0.65;0.65;;;7.20;99.90;;;;;;5021376;28;20049;-35
2024/04/02 04:49:40;;;;;;;0.80;0.80;;;7.20;99.90;;;;;;5019663;28;20121;-40
2024/04/02 04:52:07;;;;;;;0.90;0.90;;;7.20;99.90;;;;;;5020343;28;20341;-39
2024/04/02 04:54:33;;;;;;;0.82;0.82;;;7.20;99.90;;;;;;5023014;28;20475;-42
2024/04/02 04:56:59;;;;;;;0.98;0.88;;;7.20;99.90;;;;;;5018489;28;20033;-38
2024/04/02 04:59:25;;;;;;;0.60;0.60;;;7.20;99.90;;;;;;5039890;28;20040;-38
2024/04/02 05:01:50;;;;;;;0.80;0.80;;;7.30;99.90;;;;;;5031289;28;20037;-36
2024/04/02 05:04:16;;;;;;;0.57;0.57;;;7.30;99.90;;;;;;5039695;28;20667;-40
2024/04/02 05:06:43;;;;;;;0.70;0.70;;;7.30;99.90;;;;;;5039346;28;20028;-41
2024/04/02 05:09:12;;;;;;;0.50;0.50;;;7.20;99.90;;;;;;5039614;28;20048;-38
2024/04/02 05:11:38;;;;;;;0.52;0.52;;;7.30;99.90;;;;;;5037017;28;20319;-39
2024/04/02 05:14:04;;;;;;;0.65;0.65;;;7.30;99.90;;;;;;5038491;28;20521;-39
2024/04/02 05:16:30;;;;;;;0.73;0.73;;;7.30;99.90;;;;;;5039980;28;20532;-39
2024/04/02 05:18:55;;;;;;;0.55;0.55;;;7.40;99.90;;;;;;5037305;28;20036;-41
2024/04/02 05:21:22;;;;;;;0.80;0.80;;;7.40;99.90;;;;;;5040109;28;20025;-41
2024/04/02 05:23:48;;;;;;;0.65;0.65;;;7.40;99.90;;;;;;5040028;28;20025;-40
2024/04/02 05:26:13;;;;;;;0.70;0.70;;;7.40;99.90;;;;;;5036884;28;20029;-41
2024/04/02 05:28:40;;;;;;;0.80;0.80;;;7.40;99.90;;;;;;5041927;28;20116;-42
2024/04/02 05:31:07;;;;;;;0.70;0.70;;;7.40;99.90;;;;;;5036924;28;20451;-42
2024/04/02 05:33:33;;;;;;;0.80;0.80;;;7.40;99.90;;;;;;5038852;28;20116;-41
2024/04/02 05:35:59;;;;;;;0.60;0.60;;;7.40;99.90;;;;;;5039983;28;20101;-37
2024/04/02 05:38:24;;;;;;;0.68;0.68;;;7.40;99.90;;;;;;5036484;28;20029;-42
2024/04/02 05:40:50;;;;;;;0.70;0.70;;;7.50;99.90;;;;;;5038063;28;20029;-39
2024/04/02 05:43:15;;;;;;;0.80;0.80;;;7.50;99.90;;;;;;5038702;28;20025;-41
2024/04/02 05:45:41;;;;;;;0.90;0.90;;;7.50;99.90;;;;;;5040246;28;20108;-40
2024/04/02 05:48:07;;;;;;;0.90;0.90;;;7.50;99.90;;;;;;5038786;28;20122;-39
2024/04/02 05:50:32;;;;;;;0.55;0.55;;;7.60;99.90;;;;;;5038257;28;20036;-40
2024/04/02 05:52:58;;;;;;;0.80;0.73;;;7.60;99.90;;;;;;5038930;28;20029;-36
2024/04/02 05:55:23;;;;;;;0.40;0.40;;;7.60;99.90;;;;;;5038397;28;20052;-41
2024/04/02 05:57:50;;;;;;;0.70;0.70;;;7.60;99.90;;;;;;5039599;28;20035;-40
2024/04/02 06:00:15;;;;;;;0.77;0.77;;;7.60;99.90;;;;;;5038395;28;20051;-42
2024/04/02 06:02:44;;;;;;;0.70;0.70;;;7.60;99.90;;;;;;5040321;28;20025;-43
2024/04/02 06:05:10;;;;;;;0.60;0.60;;;7.50;99.90;;;;;;5038447;28;20033;-42
2024/04/02 06:07:35;;;;;;;0.80;0.60;;;7.40;99.90;;;;;;5038776;28;20035;-42
2024/04/02 06:10:01;;;;;;;0.77;0.77;;;7.40;99.90;;;;;;5038062;28;20047;-39
2024/04/02 06:12:27;;;;;;;0.45;0.45;;;7.30;99.90;;;;;;5044385;28;20032;-41
2024/04/02 06:14:54;;;;;;;0.60;0.60;;;7.30;99.90;;;;;;5042191;28;20028;-41
2024/04/02 06:17:19;;;;;;;0.50;0.50;;;7.40;99.90;;;;;;5042844;28;20028;-42
2024/04/02 06:19:45;;;;;;;0.50;0.50;;;7.50;99.90;;;;;;5040013;28;20029;-42
2024/04/02 06:22:11;;;;;;;0.47;0.47;;;7.60;99.90;;;;;;5043473;28;20099;-39
2024/04/02 06:24:37;;;;;;;1.10;0.60;;;7.60;99.90;;;;;;5046105;28;20031;-41
2024/04/02 06:27:02;;;;;;;0.60;0.60;;;7.60;99.90;;;;;;5046411;28;20036;-39
2024/04/02 06:29:29;;;;;;;0.60;0.60;;;7.60;99.90;;;;;;5044277;28;20105;-41
2024/04/02 06:31:56;;;;;;;0.60;0.60;;;7.60;99.90;;;;;;5045401;28;20036;-41
2024/04/02 06:34:21;;;;;;;0.63;0.63;;;7.60;99.90;;;;;;5044236;28;20025;-41
2024/04/02 06:36:47;;;;;;;0.50;0.50;;;7.70;99.90;;;;;;5045088;28;20027;-42
2024/04/02 06:39:12;;;;;;;0.40;0.40;;;7.70;99.90;;;;;;5044391;28;20033;-41
2024/04/02 06:41:41;;;;;;;0.52;0.40;;;7.70;99.90;;;;;;5056306;28;20025;-39
2024/04/02 06:44:07;;;;;;;0.50;0.50;;;7.90;99.90;;;;;;5043477;28;20025;-42
2024/04/02 06:46:32;;;;;;;0.40;0.40;;;8.10;99.90;;;;;;5044465;28;20029;-40
2024/04/02 06:48:58;;;;;;;0.40;0.40;;;8.20;99.90;;;;;;5046269;28;20440;-40
2024/04/02 06:51:24;;;;;;;0.50;0.50;;;8.20;99.90;;;;;;5044908;28;20405;-39
2024/04/02 06:53:50;;;;;;;0.30;0.30;;;8.20;99.90;;;;;;5044877;28;20091;-39
2024/04/02 06:56:16;;;;;;;0.52;0.50;;;8.10;99.90;;;;;;5042888;28;20024;-40
2024/04/02 06:58:42;;;;;;;0.40;0.40;;;8.10;99.90;;;;;;5045416;28;20495;-39
2024/04/02 07:01:08;;;;;;;0.50;0.50;;;8.00;99.90;;;;;;5043869;28;20220;-40
2024/04/02 07:03:34;;;;;;;0.40;0.40;;;8.00;99.90;;;;;;5044824;28;20040;-39
2024/04/02 07:05:59;;;;;;;0.43;0.43;;;8.10;99.90;;;;;;5040970;28;20041;-33
2024/04/02 07:08:25;;;;;;;0.57;0.57;;;8.20;99.90;;;;;;5045501;28;20024;-39
2024/04/02 07:10:59;;;;;;;0.52;0.52;;;8.30;99.90;;;;;;5043370;28;20032;-33
2024/04/02 07:13:26;;;;;;;0.50;0.50;;;8.40;99.90;;;;;;5041275;28;20025;-34
2024/04/02 07:15:52;;;;;;;0.75;0.50;;;8.20;99.90;;;;;;5045977;28;20033;-32
2024/04/02 07:18:17;;;;;;;0.60;0.60;;;8.30;99.90;;;;;;5043876;28;20147;-34
2024/04/02 07:20:43;;;;;;;0.60;0.60;;;8.30;99.90;;;;;;5044102;28;20055;-36
2024/04/02 07:23:08;;;;;;;1.52;0.57;;;8.30;99.90;;;;;;5036532;28;20036;-35
2024/04/02 07:25:34;;;;;;;0.50;0.50;;;8.30;99.90;;;;;;5041919;28;20589;-33
2024/04/02 07:27:59;;;;;;;1.08;0.40;;;8.40;99.90;;;;;;5033813;28;20021;-34
2024/04/02 07:30:25;;;;;;;0.50;0.50;;;8.50;99.90;;;;;;5043154;28;20108;-36
2024/04/02 07:32:51;;;;;;;0.38;0.38;;;8.50;99.90;;;;;;5043153;28;20036;-34
2024/04/02 07:35:17;;;;;;;0.57;0.57;;;8.50;99.90;;;;;;5042378;28;20478;-38
2024/04/02 07:37:43;;;;;;;0.55;0.52;;;8.60;99.90;;;;;;5044585;28;20025;-37
2024/04/02 07:40:09;;;;;;;0.52;0.52;;;8.60;99.90;;;;;;5043687;28;20128;-33
2024/04/02 07:42:35;;;;;;;0.50;0.50;;;8.60;99.90;;;;;;5041950;28;20411;-34
2024/04/02 07:45:01;;;;;;;0.57;0.50;;;8.70;99.90;;;;;;5040789;28;20025;-36
2024/04/02 07:47:26;;;;;;;0.50;0.50;;;8.70;99.90;;;;;;5043826;28;20037;-34
2024/04/02 07:49:52;;;;;;;0.75;0.75;;;8.80;99.90;;;;;;5043680;28;20167;-33
2024/04/02 07:52:17;;;;;;;0.40;0.40;;;8.70;99.90;;;;;;5039701;28;20790;-33
2024/04/02 07:54:43;;;;;;;0.40;0.40;;;8.70;99.90;;;;;;5044915;28;20409;-36
2024/04/02 07:57:09;;;;;;;0.32;0.32;;;8.70;99.90;;;;;;5042129;28;20102;-34
2024/04/02 07:59:34;;;;;;;0.40;0.40;;;8.70;99.90;;;;;;5041564;28;20367;-37
2024/04/02 08:02:00;;;;;;;0.50;0.50;;;8.80;99.90;;;;;;5040554;28;20110;-36
2024/04/02 08:04:25;;;;;;;0.50;0.50;;;8.80;99.90;;;;;;5043364;28;20013;-34
2024/04/02 08:06:52;;;;;;;0.40;0.40;;;8.90;99.90;;;;;;5043160;28;20021;-33
2024/04/02 08:09:18;;;;;;;1.10;0.50;;;8.80;99.90;;;;;;5043479;28;20613;-33
2024/04/02 08:11:44;;;;;;;1.92;0.60;;;8.80;99.90;;;;;;5040782;28;20037;-40
2024/04/02 08:14:14;;;;;;;0.55;0.55;;;8.80;99.90;;;;;;5043766;28;21574;-33
2024/04/02 08:16:39;;;;;;;0.50;0.50;;;9.00;99.90;;;;;;5040931;28;20033;-33
2024/04/02 08:19:05;;;;;;;0.50;0.50;;;9.20;99.90;;;;;;5043743;28;20035;-37
2024/04/02 08:21:30;;;;;;;0.40;0.40;;;9.10;99.90;;;;;;5043353;28;20029;-41
2024/04/02 08:23:56;;;;;;;0.50;0.50;;;9.30;99.90;;;;;;5043761;28;20037;-41
2024/04/02 08:26:23;;;;;;;1.38;0.60;;;9.30;99.90;;;;;;5041692;28;20382;-40
2024/04/02 08:28:49;;;;;;;0.35;0.35;;;9.20;99.90;;;;;;5039935;28;20122;-35
2024/04/02 08:31:14;;;;;;;0.30;0.30;;;9.30;99.90;;;;;;5042365;28;20053;-36
2024/04/02 08:33:40;;;;;;;0.95;0.60;;;9.30;99.90;;;;;;5041010;28;20493;-34
2024/04/02 08:36:06;;;;;;;1.35;0.40;;;9.30;99.90;;;;;;5040945;28;20029;-34
2024/04/02 08:38:31;;;;;;;0.40;0.40;;;9.20;99.90;;;;;;5043465;28;20137;-34
2024/04/02 08:41:05;;;;;;;0.45;0.45;;;9.20;99.90;;;;;;5041846;28;20115;-37
2024/04/02 08:43:31;;;;;;;0.40;0.40;;;9.30;99.90;;;;;;5043058;28;20025;-32
2024/04/02 08:46:00;;;;;;;0.63;0.57;;;9.30;99.90;;;;;;5043033;28;20697;-36
2024/04/02 08:48:26;;;;;;;0.40;0.40;;;9.20;99.90;;;;;;5040987;28;20046;-36
2024/04/02 08:50:58;;;;;;;1.95;0.50;;;9.20;99.90;;;;;;5043628;28;20032;-34
2024/04/02 08:53:23;;;;;;;1.45;0.55;;;9.20;99.90;;;;;;5039554;28;20100;-35
2024/04/02 08:55:49;;;;;;;0.60;0.55;;;9.30;99.90;;;;;;5041444;28;20065;-32
2024/04/02 08:58:15;;;;;;;1.35;0.50;;;9.20;99.90;;;;;;5041839;28;20031;-35
2024/04/02 09:00:41;;;;;;;1.30;1.20;;;9.20;99.90;;;;;;5041656;28;20048;-34
2024/04/02 09:03:16;;;;;;;0.47;0.45;;;9.20;99.90;;;;;;5043321;28;20029;-32
2024/04/02 09:05:42;;;;;;;0.90;0.90;;;9.20;99.90;;;;;;5042131;28;20036;-33
2024/04/02 09:08:09;;;;;;;0.50;0.50;;;9.20;99.90;;;;;;5041297;28;20202;-35
2024/04/02 09:10:35;;;;;;;0.60;0.60;;;9.20;99.90;;;;;;5041446;28;20710;-32
2024/04/02 09:13:00;;;;;;;0.55;0.55;;;9.30;99.90;;;;;;5038225;28;20031;-34
2024/04/02 09:15:26;;;;;;;0.30;0.30;;;9.30;99.90;;;;;;5036728;28;20029;-34
2024/04/02 09:17:52;;;;;;;0.60;0.60;;;9.30;99.90;;;;;;5038694;28;20025;-33
2024/04/02 09:20:17;;;;;;;1.70;1.02;;;9.40;99.90;;;;;;5040055;28;20025;-33
2024/04/02 09:22:43;;;;;;;0.65;0.60;;;9.40;99.90;;;;;;5041893;28;20025;-33
2024/04/02 09:25:11;;;;;;;3.03;1.08;;;9.40;99.90;;;;;;5040944;28;20024;-35
2024/04/02 09:27:39;;;;;;;1.05;0.52;;;9.40;99.90;;;;;;5041310;28;20025;-32
2024/04/02 09:30:06;;;;;;;2.40;1.33;;;9.50;99.90;;;;;;5038208;28;20079;-32
2024/04/02 09:32:37;;;;;;;0.98;0.93;;;9.50;99.20;;;;;;5023507;28;20040;-33
2024/04/02 09:35:20;;;;;;;1.27;0.75;;;9.60;98.90;;;;;;5021119;28;20172;-37
2024/04/02 09:37:50;;;;;;;0.75;0.75;;;9.70;99.90;;;;;;5033727;28;20034;-36
2024/04/02 09:40:17;;;;;;;2.45;0.90;;;9.60;99.60;;;;;;5019889;28;20352;-32
2024/04/02 09:42:47;;;;;;;1.50;1.00;;;9.70;98.60;;;;;;5018627;28;20087;-33
2024/04/02 09:45:13;;;;;;;1.23;0.93;;;9.90;99.00;;;;;;5022807;28;20491;-31
2024/04/02 09:47:42;;;;;;;2.22;1.17;;;9.80;97.00;;;;;;5023339;28;20046;-34
2024/04/02 09:50:08;;;;;;;0.73;0.73;;;9.80;95.30;;;;;;5019522;28;20152;-34
2024/04/02 09:52:35;;;;;;;1.20;1.02;;;9.90;98.80;;;;;;5025288;28;20497;-36
2024/04/02 09:55:01;;;;;;;2.75;0.82;;;10.30;95.90;;;;;;5020948;28;20033;-38
2024/04/02 09:57:26;;;;;;;2.92;0.88;;;10.80;96.20;;;;;;5020953;28;20441;-34
2024/04/02 09:59:52;;;;;;;0.95;0.55;;;10.40;93.50;;;;;;5025188;28;20026;-35
2024/04/02 10:02:26;;;;;;;2.15;0.60;;;10.30;94.00;;;;;;5036734;28;20611;-34
2024/04/02 10:04:52;;;;;;;1.08;0.70;;;10.30;95.00;;;;;;5044615;28;20574;-39
2024/04/02 10:07:28;;;;;;;2.00;0.70;;;10.50;97.00;;;;;;5044228;28;20120;-33
2024/04/02 10:09:57;;;;;;;0.73;0.52;;;10.80;95.10;;;;;;5044606;28;20033;-34
2024/04/02 10:12:30;;;;;;;2.05;1.15;;;10.90;93.70;;;;;;5045617;28;21725;-32
2024/04/02 10:14:57;;;;;;;5.20;1.10;;;11.00;92.80;;;;;;5045092;28;20021;-39
2024/04/02 10:17:23;;;;;;;0.57;0.57;;;11.60;98.10;;;;;;5043871;28;20517;-33
2024/04/02 10:19:50;;;;;;;3.15;0.95;;;11.60;91.30;;;;;;5044721;28;20021;-34
2024/04/02 10:22:36;;;;;;;0.77;0.77;;;11.30;86.30;;;;;;5045010;28;20051;-35
2024/04/02 10:25:20;;;;;;;3.88;1.00;;;11.30;92.70;;;;;;5043808;28;20368;-34
2024/04/02 10:27:49;;;;;;;2.13;1.00;;;11.10;88.30;;;;;;5045261;28;20035;-34
2024/04/02 10:30:15;;;;;;;1.45;1.02;;;10.90;82.10;;;;;;5042292;28;20056;-34
2024/04/02 10:32:42;;;;;;;0.95;0.88;;;10.80;86.50;;;;;;5044415;28;20044;-36
2024/04/02 10:35:26;;;;;;;2.40;0.70;;;10.60;82.00;;;;;;5042194;28;20029;-32
2024/04/02 10:37:56;;;;;;;1.02;0.73;;;10.70;88.40;;;;;;5044550;28;20033;-33
2024/04/02 10:40:23;;;;;;;1.08;0.98;;;10.80;89.50;;;;;;5042538;28;20418;-36
2024/04/02 10:42:50;;;;;;;3.13;0.93;;;10.70;89.60;;;;;;5041910;28;20383;-35
2024/04/02 10:45:16;;;;;;;1.45;0.65;;;10.60;95.30;;;;;;5044431;28;20100;-33
2024/04/02 10:47:52;;;;;;;0.88;0.50;;;10.70;99.90;;;;;;5044131;28;20376;-33
2024/04/02 10:50:23;;;;;;;0.70;0.68;;;10.80;96.10;;;;;;5041303;28;20029;-42
2024/04/02 10:52:48;;;;;;;2.00;0.77;;;11.40;99.90;;;;;;5044997;28;20047;-41
2024/04/02 10:55:14;;;;;;;0.65;0.50;;;11.50;99.00;;;;;;5045352;28;20075;-38
2024/04/02 10:57:41;;;;;;;0.65;0.63;;;11.60;95.00;;;;;;5044811;28;20498;-39
2024/04/02 11:00:11;;;;;;;0.68;0.40;;;11.60;92.00;;;;;;5042428;28;20044;-42
2024/04/02 11:02:39;;;;;;;3.35;0.70;;;11.40;90.50;;;;;;5042780;28;20517;-41
2024/04/02 11:05:06;;;;;;;0.90;0.85;;;11.20;86.00;;;;;;5039636;28;20051;-40
2024/04/02 11:07:33;;;;;;;2.25;0.77;;;11.20;87.30;;;;;;5043238;28;20029;-39
2024/04/02 11:09:59;;;;;;;1.90;0.95;;;11.80;91.20;;;;;;5045259;28;20033;-38
2024/04/02 11:12:26;;;;;;;0.90;0.63;;;11.50;78.80;;;;;;5041758;28;20552;-35
2024/04/02 11:14:53;;;;;;;1.90;0.77;;;11.50;87.70;;;;;;5043304;28;20430;-41
2024/04/02 11:17:19;;;;;;;1.35;1.00;;;11.40;82.00;;;;;;5043660;28;20043;-41
2024/04/02 11:19:44;;;;;;;2.38;0.90;;;11.60;80.20;;;;;;5043263;28;20041;-37
2024/04/02 11:25:11;;;;;;;2.13;0.95;;;11.60;80.50;;;;;;5045601;28;20632;-37
2024/04/02 11:27:37;;;;;;;0.93;0.82;;;11.60;82.80;;;;;;5040577;28;20025;-42
2024/04/02 11:30:03;;;;;;;1.15;0.60;;;11.60;82.30;;;;;;5043121;28;20029;-39
2024/04/02 11:32:29;;;;;;;1.10;0.65;;;11.50;83.70;;;;;;5044114;28;20094;-42
2024/04/02 11:34:58;;;;;;;1.38;0.75;;;11.30;79.40;;;;;;5044400;28;20033;-41
2024/04/02 11:37:23;;;;;;;0.82;0.60;;;11.20;81.00;;;;;;5042890;28;20033;-42
2024/04/02 11:39:49;;;;;;;1.35;0.80;;;11.20;80.80;;;;;;5044357;28;20035;-42
2024/04/02 11:42:15;;;;;;;2.17;1.27;;;10.80;81.40;;;;;;5043945;28;20032;-40
2024/04/02 11:44:41;;;;;;;1.42;0.88;;;10.40;95.40;;;;;;5054980;28;20032;-43
2024/04/02 11:47:07;;;;;;;2.05;0.88;;;9.90;99.90;;;;;;5042799;28;20052;-40
2024/04/02 11:49:33;;;;;;;1.45;0.82;;;9.20;99.90;;;;;;5043834;28;20036;-40
2024/04/02 11:51:59;;;;;;;1.15;0.70;;;8.90;99.90;;;;;;5043079;28;20490;-37
2024/04/02 11:54:24;;;;;;;2.28;0.68;;;8.70;99.90;;;;;;5043074;28;20151;-40
2024/04/02 12:02:20;;;;;;;0.73;0.60;;;10.10;99.90;;;;;;5041669;28;20043;-40
2024/04/02 12:04:46;;;;;;;1.43;0.63;;;10.30;99.90;;;;;;5041960;28;20044;-38
2024/04/02 12:07:11;;;;;;;1.33;0.70;;;10.70;99.90;;;;;;5041189;28;20025;-40
2024/04/02 12:09:40;;;;;;;0.60;0.60;;;10.80;99.90;;;;;;5042327;28;20107;-41
2024/04/02 12:12:06;;;;;;;1.50;0.68;;;11.00;99.90;;;;;;5041072;28;20682;-40
2024/04/02 12:14:32;;;;;;;1.95;0.60;;;11.10;99.90;;;;;;5042265;28;20118;-40
2024/04/02 12:16:57;;;;;;;1.15;0.70;;;11.30;99.90;;;;;;5043626;28;20104;-35
2024/04/02 12:19:23;;;;;;;0.90;0.73;;;11.20;99.90;;;;;;5042826;28;20025;-40
2024/04/02 12:21:50;;;;;;;0.40;0.40;;;11.10;99.90;;;;;;5040171;28;20032;-39
2024/04/02 12:24:16;;;;;;;1.73;0.88;;;11.20;99.90;;;;;;5042519;28;20085;-39
2024/04/02 12:26:42;;;;;;;1.25;0.60;;;11.30;99.90;;;;;;5041813;28;20021;-40
2024/04/02 12:29:07;;;;;;;0.43;0.43;;;11.70;99.90;;;;;;5041952;28;20059;-37
2024/04/02 12:31:33;;;;;;;0.90;0.60;;;11.70;99.90;;;;;;5041532;28;20042;-41
2024/04/02 12:33:58;;;;;;;0.52;0.52;;;11.90;99.90;;;;;;5043179;28;20028;-38
2024/04/02 12:36:25;;;;;;;1.95;0.63;;;12.10;98.20;;;;;;5040523;28;20025;-40
2024/04/02 12:38:51;;;;;;;2.08;0.80;;;12.20;97.40;;;;;;5040599;28;20021;-41
2024/04/02 12:41:16;;;;;;;1.17;0.60;;;12.30;94.00;;;;;;5056459;28;20411;-37
2024/04/02 12:43:42;;;;;;;0.93;0.70;;;12.20;90.60;;;;;;5043004;28;20031;-40
2024/04/02 12:46:08;;;;;;;1.40;0.90;;;12.30;90.80;;;;;;5041990;28;20745;-41
2024/04/02 12:48:35;;;;;;;0.95;0.70;;;12.40;89.10;;;;;;5040698;28;20037;-39
2024/04/02 12:51:01;;;;;;;0.97;0.67;;;12.50;92.10;;;;;;5041025;28;20076;-38
2024/04/02 12:53:26;;;;;;;1.33;0.68;;;12.80;90.30;;;;;;5042311;28;20060;-41
2024/04/02 12:55:54;;;;;;;0.80;0.73;;;13.00;82.30;;;;;;5038724;28;20134;-38
2024/04/02 12:58:20;;;;;;;0.73;0.30;;;12.80;77.10;;;;;;5037562;28;20033;-37
2024/04/02 13:00:45;;;;;;;0.40;0.40;;;12.60;87.40;;;;;;5039975;28;20489;-42